Accueil
METAR-TAF:

METAR-TAF

Aéroports :

Aéroport international de Recife

Recife, Pernambouc, Brésil

latitude: 08-08S, longitude: 034-55W, altitude: 19 m

Observation

Le bulletin a été fait il y a 51 minutes, à 22:00 UTC
Vent 6 kt de est/nord-est
Température 27°C
Humidité 74%
Pression 1012 hPa
Visibilité 10 km ou plus
Nuages épars à une hauteur de 2000 ft

METAR: SBRF 212200Z 06006KT 9999 SCT020 27/22 Q1012

Heure: 19:51 (22:51 UTC)

Prévision

Le bulletin a été fait il y a 7 heures et 51 minutes, à 15:00 UTC
Prévision valable du 21 à 18 UTC au 22 à 18 UTC
Vent 8 kt de est/nord-est
Visibilité 10 km ou plus
Nuages épars à une hauteur de 2300 ft

TAF: SBRF 211500Z 2118/2218 07008KT 9999 SCT023 TN25/2209Z TX29/2214Z RMK PEA

Observations et prévisions météorologiques de plus de 4000 aéroports (messages METAR et TAF).

Les stations disponibles sont représentées par des disques jaunes et rouges sur la carte.

Passer la souris dessus pour voir le nom de la station.

Cliquer dessus pour voir les observations et prévisions météorologiques.

Pour changer de carte: cliquez sur les boutons verts avec une croix noire pour zoomer, sur le bouton vert avec un tiret pour effectuer un zoom arrière, ou sur les flèches vertes pour les cartes adjacentes.


METAR-TAF: